createdAt,value
2018-03-28T00:02:08.442Z,13.63
2018-03-28T00:04:36.877Z,17.33
2018-03-28T00:07:05.370Z,18.53
2018-03-28T00:09:33.882Z,15.93
2018-03-28T00:12:02.342Z,14.63
2018-03-28T00:14:30.941Z,14.40
2018-03-28T00:16:59.358Z,18.80
2018-03-28T00:19:27.996Z,13.53
2018-03-28T00:21:56.436Z,22.53
2018-03-28T00:24:24.885Z,14.87
2018-03-28T00:26:53.495Z,16.87
2018-03-28T00:29:22.045Z,20.87
2018-03-28T00:31:50.915Z,15.60
2018-03-28T00:34:20.526Z,19.63
2018-03-28T00:36:49.887Z,16.73
2018-03-28T00:39:19.295Z,19.53
2018-03-28T00:41:48.083Z,18.07
2018-03-28T00:44:16.751Z,17.93
2018-03-28T00:46:45.326Z,23.10
2018-03-28T00:49:14.059Z,17.43
2018-03-28T00:51:42.507Z,16.10
2018-03-28T00:54:11.008Z,18.00
2018-03-28T00:56:39.454Z,18.17
2018-03-28T00:59:07.947Z,14.60
2018-03-28T01:01:37.127Z,19.20
2018-03-28T01:04:05.766Z,17.20
2018-03-28T01:06:34.499Z,15.97
2018-03-28T01:09:03.290Z,18.67
2018-03-28T01:11:32.315Z,18.83
2018-03-28T01:14:04.575Z,13.90
2018-03-28T01:16:33.295Z,16.13
2018-03-28T01:19:01.771Z,17.07
2018-03-28T01:21:30.183Z,19.90
2018-03-28T01:23:58.594Z,16.57
2018-03-28T01:26:27.306Z,21.97
2018-03-28T01:29:00.019Z,18.40
2018-03-28T01:31:28.512Z,19.70
2018-03-28T01:33:57.150Z,17.07
2018-03-28T01:36:25.690Z,18.87
2018-03-28T01:38:54.275Z,16.60
2018-03-28T01:41:23.043Z,19.63
2018-03-28T01:43:51.642Z,20.30
2018-03-28T01:46:20.227Z,21.07
2018-03-28T01:48:50.805Z,23.17
2018-03-28T01:51:19.239Z,22.13
2018-03-28T01:53:48.174Z,20.30
2018-03-28T01:56:17.504Z,23.17
2018-03-28T01:58:46.329Z,19.13
2018-03-28T02:01:17.962Z,23.43
2018-03-28T02:03:46.577Z,20.63
2018-03-28T02:06:14.962Z,23.63
2018-03-28T02:08:43.502Z,22.93
2018-03-28T02:11:11.999Z,19.77
2018-03-28T02:13:40.777Z,23.93
2018-03-28T02:16:10.232Z,18.53
2018-03-28T02:18:38.938Z,21.90
2018-03-28T02:21:07.490Z,35.37
2018-03-28T02:23:37.333Z,31.30
2018-03-28T02:26:06.031Z,24.73
2018-03-28T02:28:35.366Z,28.93
2018-03-28T02:31:04.477Z,28.10
2018-03-28T02:33:33.121Z,27.30
2018-03-28T02:36:02.323Z,29.00
2018-03-28T02:38:30.906Z,27.60
2018-03-28T02:41:00.149Z,23.10
2018-03-28T02:43:28.738Z,27.53
2018-03-28T02:45:57.460Z,27.20
2018-03-28T02:48:26.848Z,26.50
2018-03-28T02:50:55.293Z,31.10
2018-03-28T02:53:23.782Z,28.07
2018-03-28T02:55:52.292Z,25.17
2018-03-28T02:58:20.771Z,29.50
2018-03-28T03:00:52.155Z,31.13
2018-03-28T03:03:21.272Z,28.33
2018-03-28T03:05:49.964Z,30.63
2018-03-28T03:08:18.415Z,31.93
2018-03-28T03:10:47.163Z,33.03
2018-03-28T03:13:15.886Z,29.70
2018-03-28T03:15:44.601Z,32.10
2018-03-28T03:18:13.438Z,33.40
2018-03-28T03:20:43.800Z,34.37
2018-03-28T03:23:12.544Z,27.20
2018-03-28T03:25:41.821Z,39.83
2018-03-28T03:28:12.518Z,43.57
2018-03-28T03:30:43.184Z,36.87
2018-03-28T03:33:11.778Z,34.63
2018-03-28T03:35:42.073Z,36.27
2018-03-28T03:38:11.344Z,32.37
2018-03-28T03:40:40.026Z,46.40
2018-03-28T03:43:09.002Z,33.43
2018-03-28T03:45:39.190Z,32.17
2018-03-28T03:48:07.572Z,33.13
2018-03-28T03:50:36.270Z,37.50
2018-03-28T03:53:04.795Z,38.27
2018-03-28T03:55:34.354Z,38.57
2018-03-28T03:58:03.003Z,37.03
2018-03-28T04:00:31.551Z,37.80
2018-03-28T04:02:59.989Z,41.70
2018-03-28T04:05:28.507Z,41.43
2018-03-28T04:07:56.982Z,45.03
2018-03-28T04:10:25.462Z,44.00
2018-03-28T04:12:53.987Z,45.77
2018-03-28T04:15:22.527Z,47.83
2018-03-28T04:17:51.076Z,34.60
2018-03-28T04:20:19.667Z,47.17
2018-03-28T04:22:48.137Z,38.33
2018-03-28T04:25:16.735Z,46.03
2018-03-28T04:27:45.300Z,45.20
2018-03-28T04:30:13.815Z,39.53
2018-03-28T04:32:42.212Z,43.40
2018-03-28T04:35:10.855Z,48.37
2018-03-28T04:37:40.057Z,42.60
2018-03-28T04:40:10.425Z,46.60
2018-03-28T04:42:39.043Z,46.40
2018-03-28T04:45:09.191Z,42.27
2018-03-28T04:47:37.663Z,46.40
2018-03-28T04:50:06.079Z,49.63
2018-03-28T04:52:35.433Z,42.53
2018-03-28T04:55:04.398Z,51.90
2018-03-28T04:57:33.512Z,38.90
2018-03-28T05:00:02.223Z,43.13
2018-03-28T05:02:30.941Z,50.10
2018-03-28T05:04:59.827Z,43.30
2018-03-28T05:07:29.116Z,52.73
2018-03-28T05:09:58.682Z,43.30
2018-03-28T05:12:28.318Z,45.00
2018-03-28T05:14:57.986Z,52.33
2018-03-28T05:17:26.636Z,55.63
2018-03-28T05:19:55.540Z,47.77
2018-03-28T05:22:24.643Z,45.87
2018-03-28T05:24:53.320Z,57.10
2018-03-28T05:27:21.867Z,47.27
2018-03-28T05:29:50.832Z,56.70
2018-03-28T05:32:19.247Z,51.93
2018-03-28T05:34:48.390Z,59.60
2018-03-28T05:37:17.509Z,56.67
2018-03-28T05:39:46.541Z,55.50
2018-03-28T05:42:15.794Z,57.63
2018-03-28T05:44:44.939Z,53.97
2018-03-28T05:47:14.012Z,54.10
2018-03-28T05:49:42.827Z,59.97
2018-03-28T05:52:11.777Z,61.13
2018-03-28T05:54:41.171Z,68.63
2018-03-28T05:57:10.060Z,60.13
2018-03-28T05:59:39.060Z,67.17
2018-03-28T06:02:07.653Z,59.90
2018-03-28T06:04:36.387Z,72.63
2018-03-28T06:07:04.891Z,65.70
2018-03-28T06:09:33.408Z,75.17
2018-03-28T06:12:01.816Z,86.83
2018-03-28T06:14:30.339Z,83.17
2018-03-28T06:16:58.811Z,81.37
2018-03-28T06:19:27.258Z,89.97
2018-03-28T06:21:55.791Z,100.50
2018-03-28T06:24:24.180Z,99.23
2018-03-28T06:26:52.593Z,102.40
2018-03-28T06:29:20.988Z,103.73
2018-03-28T06:31:49.402Z,108.00
2018-03-28T06:34:17.787Z,101.97
2018-03-28T06:36:46.175Z,118.83
2018-03-28T06:39:14.706Z,100.97
2018-03-28T06:41:43.348Z,119.23
2018-03-28T06:44:11.855Z,112.13
2018-03-28T06:46:40.259Z,124.43
2018-03-28T06:49:08.785Z,117.87
2018-03-28T06:51:37.205Z,124.43
2018-03-28T06:54:06.040Z,123.60
2018-03-28T06:56:34.845Z,131.37
2018-03-28T06:59:03.766Z,119.67
2018-03-28T07:01:32.167Z,130.43
2018-03-28T07:04:00.627Z,132.10
2018-03-28T07:06:29.992Z,123.23
2018-03-28T07:08:58.939Z,118.03
2018-03-28T07:11:27.778Z,124.43
2018-03-28T07:13:56.964Z,125.00
2018-03-28T07:16:26.578Z,124.00
2018-03-28T07:18:55.334Z,118.73
2018-03-28T07:21:24.238Z,121.00
2018-03-28T07:23:53.949Z,118.90
2018-03-28T07:26:23.556Z,130.27
2018-03-28T07:28:52.639Z,130.50
2018-03-28T07:31:21.633Z,128.23
2018-03-28T07:33:51.804Z,137.93
2018-03-28T07:36:21.484Z,135.13
2018-03-28T07:38:49.926Z,146.47
2018-03-28T07:41:18.391Z,146.73
2018-03-28T07:43:46.925Z,142.40
2018-03-28T07:46:15.315Z,154.17
2018-03-28T07:48:43.690Z,146.60
2018-03-28T07:51:15.491Z,163.00
2018-03-28T07:53:44.284Z,159.60
2018-03-28T07:56:23.418Z,160.83
2018-03-28T07:58:52.916Z,176.47
2018-03-28T08:01:21.585Z,194.47
2018-03-28T08:03:50.069Z,171.53
2018-03-28T08:06:18.601Z,190.97
2018-03-28T08:08:47.460Z,181.57
2018-03-28T08:11:15.959Z,204.13
2018-03-28T08:13:44.570Z,215.40
2018-03-28T08:16:13.041Z,204.60
2018-03-28T08:18:41.547Z,202.20
2018-03-28T08:21:10.031Z,184.60
2018-03-28T08:23:38.791Z,201.57
2018-03-28T08:26:07.386Z,207.33
2018-03-28T08:28:35.866Z,172.57
2018-03-28T08:31:04.545Z,196.43
2018-03-28T08:33:33.027Z,197.20
2018-03-28T08:36:01.844Z,196.83
2018-03-28T08:38:30.317Z,197.63
2018-03-28T08:40:58.793Z,193.13
2018-03-28T08:43:27.265Z,178.53
2018-03-28T08:45:55.772Z,190.27
2018-03-28T08:48:24.259Z,181.30
2018-03-28T08:50:52.940Z,175.90
2018-03-28T08:53:21.426Z,192.43
2018-03-28T08:55:50.223Z,189.70
2018-03-28T08:58:18.977Z,180.40
2018-03-28T09:00:47.613Z,192.03
2018-03-28T09:03:16.102Z,181.33
2018-03-28T09:05:44.578Z,181.20
2018-03-28T09:08:13.107Z,184.63
2018-03-28T09:10:41.578Z,197.23
2018-03-28T09:13:10.246Z,167.03
2018-03-28T09:15:38.758Z,188.07
2018-03-28T09:18:07.361Z,180.30
2018-03-28T09:20:35.949Z,167.70
2018-03-28T09:23:04.609Z,178.60
2018-03-28T09:25:33.079Z,170.97
2018-03-28T09:28:01.774Z,186.93
2018-03-28T09:30:30.269Z,171.87
2018-03-28T09:32:59.340Z,177.20
2018-03-28T09:35:27.806Z,176.67
2018-03-28T09:37:56.441Z,177.03
2018-03-28T09:40:24.953Z,162.23
2018-03-28T09:42:53.459Z,169.30
2018-03-28T09:45:22.234Z,165.20
2018-03-28T09:47:50.786Z,157.03
2018-03-28T09:50:19.526Z,170.33
2018-03-28T09:52:48.130Z,178.93
2018-03-28T09:55:16.669Z,184.07
2018-03-28T09:57:45.196Z,185.97
2018-03-28T10:00:19.806Z,184.63
2018-03-28T10:02:48.443Z,194.57
2018-03-28T10:05:16.915Z,183.40
2018-03-28T10:07:45.489Z,192.97
2018-03-28T10:10:13.959Z,199.03
2018-03-28T10:12:42.713Z,192.57
2018-03-28T10:15:11.238Z,216.00
2018-03-28T10:17:39.757Z,229.53
2018-03-28T10:20:08.406Z,222.93
2018-03-28T10:22:37.126Z,208.70
2018-03-28T10:25:05.637Z,213.60
2018-03-28T10:27:34.168Z,221.73
2018-03-28T10:30:02.721Z,224.30
2018-03-28T10:32:31.275Z,198.97
2018-03-28T10:34:59.754Z,189.47
2018-03-28T10:37:28.241Z,193.17
2018-03-28T10:39:56.952Z,184.90
2018-03-28T10:42:25.439Z,187.67
2018-03-28T10:44:54.176Z,181.03
2018-03-28T10:47:22.678Z,188.40
2018-03-28T10:49:51.186Z,196.20
2018-03-28T10:52:19.665Z,194.43
2018-03-28T10:54:48.216Z,208.13
2018-03-28T10:57:16.745Z,204.97
2018-03-28T10:59:45.406Z,204.90
2018-03-28T11:02:13.876Z,213.83
2018-03-28T11:04:42.411Z,214.90
2018-03-28T11:07:10.908Z,219.10
2018-03-28T11:09:39.871Z,221.77
2018-03-28T11:12:08.378Z,202.13
2018-03-28T11:14:36.996Z,191.47
2018-03-28T11:17:05.566Z,200.07
2018-03-28T11:19:34.398Z,187.87
2018-03-28T11:22:03.106Z,195.00
2018-03-28T11:24:31.840Z,204.73
2018-03-28T11:27:00.359Z,201.80
2018-03-28T11:29:28.939Z,185.17
2018-03-28T11:31:57.568Z,198.07
2018-03-28T11:34:26.050Z,181.53
2018-03-28T11:36:54.910Z,190.80
2018-03-28T11:39:23.421Z,202.83
2018-03-28T11:41:52.305Z,168.63
2018-03-28T11:44:20.838Z,143.93
2018-03-28T11:46:49.370Z,153.50
2018-03-28T11:49:17.879Z,149.80
2018-03-28T11:51:46.669Z,158.40
2018-03-28T11:54:15.285Z,155.83
2018-03-28T11:56:43.823Z,156.33
2018-03-28T11:59:12.355Z,149.40
2018-03-28T12:01:41.003Z,140.80
2018-03-28T12:04:09.519Z,128.00
2018-03-28T12:06:38.102Z,129.10
2018-03-28T12:09:06.575Z,128.27
2018-03-28T12:11:35.053Z,138.73
2018-03-28T12:14:03.614Z,117.63
2018-03-28T12:16:32.284Z,115.27
2018-03-28T12:19:00.773Z,117.13
2018-03-28T12:21:29.300Z,140.13
2018-03-28T12:23:57.939Z,129.77
2018-03-28T12:26:26.518Z,103.60
2018-03-28T12:28:55.046Z,93.90
2018-03-28T12:31:23.791Z,112.97
2018-03-28T12:33:52.309Z,113.40
2018-03-28T12:36:21.092Z,100.83
2018-03-28T12:38:49.848Z,105.13
2018-03-28T12:41:18.494Z,98.03
2018-03-28T12:43:47.009Z,95.03
2018-03-28T12:46:15.534Z,90.83
2018-03-28T12:48:45.915Z,106.10
2018-03-28T12:51:14.421Z,114.50
2018-03-28T12:53:42.971Z,112.43
2018-03-28T12:56:11.758Z,108.90
2018-03-28T12:58:40.327Z,113.70
2018-03-28T13:01:08.973Z,108.07
2018-03-28T13:03:37.526Z,129.03
2018-03-28T13:06:06.157Z,110.43
2018-03-28T13:08:34.640Z,112.30
2018-03-28T13:11:05.366Z,125.37
2018-03-28T13:13:33.972Z,129.17
2018-03-28T13:16:02.534Z,127.50
2018-03-28T13:18:31.284Z,132.43
2018-03-28T13:20:59.732Z,110.97
2018-03-28T13:23:28.189Z,126.60
2018-03-28T13:25:56.735Z,111.10
2018-03-28T13:28:25.222Z,115.50
2018-03-28T13:30:53.739Z,124.23
2018-03-28T13:33:22.373Z,118.30
2018-03-28T13:35:50.847Z,102.83
2018-03-28T13:38:20.274Z,104.07
2018-03-28T13:40:49.085Z,103.73
2018-03-28T13:43:17.570Z,108.57
2018-03-28T13:45:46.407Z,93.97
2018-03-28T13:48:15.010Z,96.13
2018-03-28T13:50:43.575Z,99.80
2018-03-28T13:53:12.062Z,94.30
2018-03-28T13:55:41.055Z,86.53
2018-03-28T13:58:09.757Z,77.53
2018-03-28T14:00:38.781Z,90.10
2018-03-28T14:03:07.695Z,82.30
2018-03-28T14:05:36.224Z,73.83
2018-03-28T14:08:04.749Z,80.00
2018-03-28T14:10:33.214Z,76.97
2018-03-28T14:13:01.761Z,90.83
2018-03-28T14:15:30.295Z,80.47
2018-03-28T14:17:58.882Z,85.50
2018-03-28T14:20:27.375Z,77.37
2018-03-28T14:22:56.044Z,81.10
2018-03-28T14:25:24.550Z,83.33
2018-03-28T14:27:53.013Z,82.90
2018-03-28T14:30:21.589Z,82.73
2018-03-28T14:32:50.105Z,79.17
2018-03-28T14:35:18.586Z,86.33
2018-03-28T14:37:47.237Z,84.90
2018-03-28T14:40:15.769Z,80.53
2018-03-28T14:42:54.587Z,84.73
2018-03-28T14:45:12.964Z,74.57
2018-03-28T14:47:41.466Z,77.63
2018-03-28T14:50:09.938Z,74.37
2018-03-28T14:52:38.494Z,72.30
2018-03-28T14:55:06.993Z,82.40
2018-03-28T14:57:35.857Z,73.97
2018-03-28T15:00:04.361Z,74.77
2018-03-28T15:02:32.872Z,67.40
2018-03-28T15:05:01.649Z,75.97
2018-03-28T15:07:30.252Z,69.60
2018-03-28T15:09:58.816Z,71.87
2018-03-28T15:12:27.489Z,69.23
2018-03-28T15:14:56.029Z,68.50
2018-03-28T15:17:24.629Z,77.17
2018-03-28T15:19:53.182Z,87.53
2018-03-28T15:22:21.833Z,75.77
2018-03-28T15:24:50.481Z,73.87
2018-03-28T15:27:18.961Z,82.37
2018-03-28T15:29:47.700Z,75.20
2018-03-28T15:32:16.182Z,69.00
2018-03-28T15:34:45.044Z,75.00
2018-03-28T15:37:13.686Z,66.93
2018-03-28T15:39:42.210Z,74.77
2018-03-28T15:42:11.022Z,72.27
2018-03-28T15:44:40.013Z,80.60
2018-03-28T15:47:08.588Z,74.97
2018-03-28T15:49:37.638Z,80.50
2018-03-28T15:52:06.183Z,78.00
2018-03-28T15:54:34.660Z,86.47
2018-03-28T15:57:03.134Z,75.47
2018-03-28T15:59:32.518Z,73.50
2018-03-28T16:02:00.993Z,80.07
2018-03-28T16:04:29.573Z,91.90
2018-03-28T16:06:58.089Z,83.00
2018-03-28T16:09:26.824Z,78.80
2018-03-28T16:11:55.293Z,93.60
2018-03-28T16:14:24.008Z,80.90
2018-03-28T16:16:52.466Z,85.27
2018-03-28T16:19:21.163Z,80.60
2018-03-28T16:21:49.745Z,86.43
2018-03-28T16:24:18.296Z,89.33
2018-03-28T16:26:46.755Z,89.77
2018-03-28T16:29:15.501Z,85.77
2018-03-28T16:31:43.953Z,80.83
2018-03-28T16:34:12.485Z,83.77
2018-03-28T16:36:41.066Z,77.90
2018-03-28T16:39:09.552Z,87.53
2018-03-28T16:41:39.698Z,83.07
2018-03-28T16:44:08.683Z,82.10
2018-03-28T16:46:37.239Z,85.77
2018-03-28T16:49:05.692Z,97.30
2018-03-28T16:51:34.279Z,95.20
2018-03-28T16:54:03.257Z,80.23
2018-03-28T16:56:31.804Z,83.87
2018-03-28T16:59:00.283Z,92.00
2018-03-28T17:01:28.749Z,90.03
2018-03-28T17:05:15.488Z,85.60
2018-03-28T17:07:43.953Z,89.27
2018-03-28T17:10:12.432Z,82.60
2018-03-28T17:12:40.870Z,81.87
2018-03-28T17:15:09.327Z,86.83
2018-03-28T17:17:37.780Z,91.67
2018-03-28T17:20:06.239Z,84.30
2018-03-28T17:22:34.676Z,90.67
2018-03-28T17:25:03.131Z,83.10
2018-03-28T17:27:31.587Z,87.43
2018-03-28T17:30:00.052Z,81.43
2018-03-28T17:32:28.892Z,91.97
2018-03-28T17:34:57.379Z,82.83
2018-03-28T17:37:25.844Z,84.60
2018-03-28T17:39:54.287Z,93.43
2018-03-28T17:42:23.218Z,93.73
2018-03-28T17:44:51.693Z,95.20
2018-03-28T17:47:20.141Z,95.97
2018-03-28T17:49:48.983Z,92.03
2018-03-28T17:52:17.431Z,87.33
2018-03-28T17:54:45.869Z,89.87
2018-03-28T17:57:14.308Z,81.97
2018-03-28T17:59:42.744Z,89.47
2018-03-28T18:02:11.594Z,87.30
2018-03-28T18:04:40.028Z,86.73
2018-03-28T18:07:08.870Z,94.60
2018-03-28T18:09:37.311Z,92.80
2018-03-28T18:12:05.813Z,97.33
2018-03-28T18:14:34.260Z,86.43
2018-03-28T18:17:02.716Z,93.23
2018-03-28T18:19:31.167Z,97.07
2018-03-28T18:21:59.622Z,105.97
2018-03-28T18:24:28.053Z,101.63
2018-03-28T18:26:56.551Z,100.00
2018-03-28T18:29:25.404Z,98.57
2018-03-28T18:31:53.896Z,105.10
2018-03-28T18:34:22.329Z,99.47
2018-03-28T18:36:50.782Z,91.03
2018-03-28T18:39:19.607Z,93.83
2018-03-28T18:41:48.052Z,101.17
2018-03-28T18:44:16.980Z,98.37
2018-03-28T18:46:45.442Z,102.00
2018-03-28T18:49:13.949Z,102.93
2018-03-28T18:51:42.446Z,106.53
2018-03-28T18:54:10.916Z,108.07
2018-03-28T18:56:39.397Z,106.73
2018-03-28T18:59:07.894Z,105.90
2018-03-28T19:01:36.349Z,114.77
2018-03-28T19:04:04.840Z,111.87
2018-03-28T19:06:33.320Z,112.03
2018-03-28T19:09:01.761Z,112.23
2018-03-28T19:11:30.595Z,108.03
2018-03-28T19:13:59.073Z,116.60
2018-03-28T19:16:27.521Z,123.07
2018-03-28T19:18:55.988Z,105.57
2018-03-28T19:21:24.831Z,129.27
2018-03-28T19:23:53.304Z,113.97
2018-03-28T19:26:21.749Z,117.90
2018-03-28T19:28:50.684Z,116.07
2018-03-28T19:31:19.170Z,112.60
2018-03-28T19:33:47.685Z,119.87
2018-03-28T19:36:16.568Z,113.27
2018-03-28T19:38:45.110Z,120.47
2018-03-28T19:41:13.553Z,123.07
2018-03-28T19:43:42.406Z,116.97
2018-03-28T19:46:10.889Z,125.47
2018-03-28T19:48:39.328Z,128.67
2018-03-28T19:51:07.789Z,125.07
2018-03-28T19:53:36.620Z,121.37
2018-03-28T19:56:05.095Z,124.17
2018-03-28T19:58:33.578Z,138.00
2018-03-28T20:01:02.240Z,129.30
2018-03-28T20:03:30.979Z,143.50
2018-03-28T20:05:59.463Z,161.47
2018-03-28T20:08:27.923Z,184.33
2018-03-28T20:10:56.391Z,195.80
2018-03-28T20:13:25.495Z,176.90
2018-03-28T20:15:53.966Z,175.37
2018-03-28T20:18:22.426Z,206.10
2018-03-28T20:20:50.939Z,189.07
2018-03-28T20:23:19.386Z,196.87
2018-03-28T20:25:48.706Z,205.07
2018-03-28T20:28:18.309Z,231.10
2018-03-28T20:30:47.483Z,216.60
2018-03-28T20:33:17.821Z,217.43
2018-03-28T20:35:47.882Z,237.70
2018-03-28T20:38:18.264Z,274.57
2018-03-28T20:40:47.712Z,269.13
2018-03-28T20:43:17.571Z,258.97
2018-03-28T20:45:49.448Z,260.93
2018-03-28T20:48:18.628Z,237.53
2018-03-28T20:50:52.338Z,250.07
2018-03-28T20:53:20.790Z,262.60
2018-03-28T20:55:49.270Z,291.97
2018-03-28T20:58:17.823Z,270.53
2018-03-28T21:00:46.342Z,284.77
2018-03-28T21:03:18.192Z,309.40
2018-03-28T21:05:46.704Z,311.23
2018-03-28T21:08:15.573Z,303.27
2018-03-28T21:10:44.031Z,327.00
2018-03-28T21:13:13.136Z,326.63
2018-03-28T21:15:41.599Z,342.83
2018-03-28T21:18:10.073Z,333.70
2018-03-28T21:20:39.061Z,309.23
2018-03-28T21:23:07.558Z,313.83
2018-03-28T21:25:36.031Z,356.47
2018-03-28T21:28:04.829Z,368.60
2018-03-28T21:30:33.538Z,282.97
2018-03-28T21:33:03.163Z,304.83
2018-03-28T21:35:33.945Z,320.17
2018-03-28T21:38:02.420Z,326.43
2018-03-28T21:40:31.106Z,307.03
2018-03-28T21:42:59.603Z,304.53
2018-03-28T21:45:28.077Z,313.03
2018-03-28T21:47:56.528Z,326.10
2018-03-28T21:50:25.317Z,355.67
2018-03-28T21:52:53.827Z,279.47
2018-03-28T21:55:22.390Z,305.37
2018-03-28T21:57:52.088Z,293.57
2018-03-28T22:00:20.546Z,329.93
2018-03-28T22:02:49.390Z,291.60
2018-03-28T22:05:17.876Z,266.57
2018-03-28T22:07:46.641Z,279.33
2018-03-28T22:10:15.813Z,275.30
2018-03-28T22:12:44.311Z,266.90
2018-03-28T22:15:15.409Z,270.20
2018-03-28T22:17:44.744Z,277.90
2018-03-28T22:20:15.018Z,304.03
2018-03-28T22:22:43.589Z,286.07
2018-03-28T22:25:12.076Z,262.17
2018-03-28T22:27:41.389Z,251.47
2018-03-28T22:30:10.023Z,278.00
2018-03-28T22:32:39.972Z,261.83
2018-03-28T22:35:08.617Z,250.30
2018-03-28T22:37:37.794Z,275.80
2018-03-28T22:40:07.425Z,249.77
2018-03-28T22:42:36.702Z,256.00
2018-03-28T22:45:05.441Z,263.43
2018-03-28T22:47:34.519Z,221.97
2018-03-28T22:50:04.022Z,218.03
2018-03-28T22:52:33.283Z,240.87
2018-03-28T22:55:02.715Z,251.00
2018-03-28T22:57:32.107Z,266.97
2018-03-28T23:00:02.565Z,241.60
2018-03-28T23:02:31.948Z,239.23
2018-03-28T23:05:02.604Z,285.33
2018-03-28T23:07:32.784Z,259.43
2018-03-28T23:10:03.759Z,245.53
2018-03-28T23:12:32.695Z,271.10
2018-03-28T23:15:01.299Z,253.07
2018-03-28T23:17:30.151Z,265.00
2018-03-28T23:19:58.628Z,235.00
2018-03-28T23:22:38.479Z,253.97
2018-03-28T23:25:06.934Z,237.43
2018-03-28T23:27:35.389Z,258.33
2018-03-28T23:30:03.866Z,255.27
2018-03-28T23:32:32.712Z,237.50
2018-03-28T23:35:01.223Z,246.33
2018-03-28T23:37:29.746Z,240.93
2018-03-28T23:39:58.301Z,238.33
2018-03-28T23:42:27.148Z,230.40
2018-03-28T23:44:55.598Z,222.07
2018-03-28T23:47:24.058Z,230.83
2018-03-28T23:49:52.911Z,227.40
2018-03-28T23:52:21.377Z,244.60
2018-03-28T23:54:49.934Z,239.60
2018-03-28T23:57:18.394Z,250.93
2018-03-28T23:59:47.294Z,253.47
